Time;durP1;ratioP1;P1;durP2;ratioP2;P2;SDS_P1;SDS_P2;PMS_P1;PMS_P2;Temp;Humidity;BMP_temperature;BMP_pressure;BME280_temperature;BME280_humidity;BME280_pressure;Samples;Min_cycle;Max_cycle;Signal;HPM_P1;HPM_P2
2023/04/15 00:01:47;;;;;;;12.50;6.27;;;4.50;96.40;;;;;;5071388;28;20591;-61
2023/04/15 00:04:14;;;;;;;18.47;8.60;;;4.50;96.30;;;;;;5062285;28;20485;-61
2023/04/15 00:06:41;;;;;;;19.83;8.97;;;;;;;;;;5074007;28;20482;-61
2023/04/15 00:09:08;;;;;;;25.13;11.47;;;4.80;95.70;;;;;;5061147;28;20497;-61
2023/04/15 00:11:34;;;;;;;63.23;23.50;;;4.90;95.50;;;;;;5083261;28;20471;-61
2023/04/15 00:14:01;;;;;;;35.90;13.90;;;4.90;95.50;;;;;;5045807;28;20909;-61
2023/04/15 00:16:28;;;;;;;19.47;8.53;;;4.90;96.10;;;;;;5063055;28;20699;-61
2023/04/15 00:18:56;;;;;;;21.47;10.57;;;5.00;95.70;;;;;;5042073;28;20501;-61
2023/04/15 00:21:23;;;;;;;20.50;9.83;;;5.10;95.10;;;;;;5077025;28;20478;-60
2023/04/15 00:23:52;;;;;;;22.47;9.17;;;5.10;94.80;;;;;;5075665;28;20481;-61
2023/04/15 00:26:19;;;;;;;19.33;9.33;;;5.10;94.80;;;;;;5085538;28;20872;-61
2023/04/15 00:28:46;;;;;;;22.73;9.17;;;5.20;94.40;;;;;;5085286;28;20557;-61
2023/04/15 00:31:13;;;;;;;16.60;7.77;;;5.40;94.40;;;;;;5065396;28;20486;-61
2023/04/15 00:33:40;;;;;;;27.53;10.83;;;5.20;94.20;;;;;;5060140;28;22030;-61
2023/04/15 00:36:08;;;;;;;24.00;10.53;;;5.10;94.30;;;;;;5070884;28;20565;-61
2023/04/15 00:38:37;;;;;;;24.43;8.30;;;5.00;94.40;;;;;;5075164;28;20491;-61
2023/04/15 00:41:05;;;;;;;28.43;12.77;;;5.00;94.30;;;;;;5074349;28;20477;-61
2023/04/15 00:43:31;;;;;;;18.50;8.00;;;5.00;94.20;;;;;;5089548;28;20474;-61
2023/04/15 00:45:59;;;;;;;32.03;13.53;;;4.90;94.00;;;;;;5087751;28;20469;-61
2023/04/15 00:48:27;;;;;;;18.20;8.53;;;4.90;94.20;;;;;;5084624;28;20466;-61
2023/04/15 00:50:53;;;;;;;46.60;11.27;;;4.90;94.40;;;;;;5089348;28;20738;-61
2023/04/15 00:53:21;;;;;;;17.40;7.83;;;4.90;94.20;;;;;;5061171;28;20470;-61
2023/04/15 00:55:48;;;;;;;21.93;9.73;;;5.00;94.10;;;;;;5074288;28;20930;-61
2023/04/15 00:58:15;;;;;;;19.40;6.07;;;5.00;93.80;;;;;;5077050;28;20489;-61
2023/04/15 01:00:43;;;;;;;25.90;10.10;;;5.00;93.90;;;;;;5069461;28;20470;-61
2023/04/15 01:03:10;;;;;;;20.43;8.50;;;4.90;94.00;;;;;;5079699;28;20481;-61
2023/04/15 01:05:38;;;;;;;17.83;7.90;;;4.90;94.00;;;;;;5090148;28;20505;-61
2023/04/15 01:08:05;;;;;;;21.60;10.83;;;4.90;93.90;;;;;;5079229;28;21094;-61
2023/04/15 01:10:34;;;;;;;24.77;10.60;;;4.90;93.80;;;;;;5070481;28;20866;-61
2023/04/15 01:13:00;;;;;;;23.30;10.23;;;6.40;94.70;;;;;;5082494;28;20786;-61
2023/04/15 01:15:27;;;;;;;21.43;9.97;;;4.80;94.20;;;;;;5062363;28;20949;-61
2023/04/15 01:17:54;;;;;;;16.70;9.33;;;4.80;94.30;;;;;;5070280;28;20482;-61
2023/04/15 01:20:22;;;;;;;21.40;7.47;;;4.80;93.90;;;;;;5086372;28;20474;-61
2023/04/15 01:22:50;;;;;;;15.87;8.20;;;4.70;93.80;;;;;;5080403;28;20577;-61
2023/04/15 01:25:19;;;;;;;17.93;9.00;;;4.70;93.70;;;;;;5075755;28;20772;-61
2023/04/15 01:27:47;;;;;;;22.23;8.20;;;4.70;93.40;;;;;;5081760;28;20573;-61
2023/04/15 01:30:14;;;;;;;16.87;8.20;;;4.60;93.30;;;;;;5069298;28;20842;-60
2023/04/15 01:32:41;;;;;;;18.93;8.63;;;4.60;93.40;;;;;;5078039;28;20562;-61
2023/04/15 01:35:08;;;;;;;23.40;9.40;;;4.60;93.50;;;;;;5085863;28;20669;-61
2023/04/15 01:37:36;;;;;;;15.30;7.03;;;4.50;93.50;;;;;;5088510;28;20924;-60
2023/04/15 01:40:03;;;;;;;28.70;12.70;;;4.50;93.50;;;;;;5086807;28;20474;-61
2023/04/15 01:42:30;;;;;;;21.40;7.20;;;4.50;93.50;;;;;;5083085;28;20477;-61
2023/04/15 01:44:58;;;;;;;25.03;11.27;;;4.30;93.60;;;;;;5080233;28;20555;-61
2023/04/15 01:47:24;;;;;;;18.67;8.67;;;4.20;94.30;;;;;;5068806;28;20481;-61
2023/04/15 01:49:51;;;;;;;22.23;9.43;;;4.00;95.00;;;;;;5086898;28;20465;-61
2023/04/15 01:52:18;;;;;;;13.17;6.90;;;4.00;95.40;;;;;;5088452;28;20535;-61
2023/04/15 01:54:45;;;;;;;15.37;6.77;;;3.90;95.60;;;;;;5075015;28;20577;-61
2023/04/15 01:57:12;;;;;;;12.93;5.87;;;4.00;95.70;;;;;;5051887;28;20494;-61
2023/04/15 01:59:39;;;;;;;18.77;9.60;;;4.00;95.20;;;;;;5078773;28;20481;-61
2023/04/15 02:02:07;;;;;;;26.77;10.43;;;4.10;94.90;;;;;;5073167;28;21020;-61
2023/04/15 02:04:33;;;;;;;22.80;7.30;;;4.10;94.50;;;;;;5088488;28;20461;-61
2023/04/15 02:07:00;;;;;;;32.00;13.53;;;4.10;94.20;;;;;;5068382;28;20496;-61
2023/04/15 02:09:27;;;;;;;25.53;9.30;;;4.10;94.20;;;;;;5077773;28;20581;-61
2023/04/15 02:11:54;;;;;;;16.13;6.70;;;1.90;93.20;;;;;;5073689;28;20581;-60
2023/04/15 02:14:20;;;;;;;15.47;6.90;;;4.20;94.00;;;;;;5073423;28;20503;-61
2023/04/15 02:16:47;;;;;;;16.77;7.87;;;4.20;93.90;;;;;;5063659;28;20486;-61
2023/04/15 02:19:15;;;;;;;15.17;6.60;;;4.20;93.80;;;;;;5090297;28;20902;-61
2023/04/15 02:21:42;;;;;;;16.37;7.90;;;4.20;94.10;;;;;;5089962;28;20640;-60
2023/04/15 02:24:10;;;;;;;22.00;10.00;;;4.20;94.20;;;;;;5088038;28;20848;-61
2023/04/15 02:26:37;;;;;;;21.97;9.00;;;4.20;93.90;;;;;;5088590;28;20473;-61
2023/04/15 02:29:04;;;;;;;29.57;12.83;;;4.20;93.80;;;;;;5076714;28;20481;-60
2023/04/15 02:31:35;;;;;;;30.23;9.40;;;4.10;93.60;;;;;;5068392;28;20477;-60
2023/04/15 02:34:03;;;;;;;26.20;10.83;;;4.10;93.60;;;;;;5088875;28;20773;-61
2023/04/15 02:36:31;;;;;;;22.50;10.50;;;4.00;93.50;;;;;;5073136;28;20490;-60
2023/04/15 02:38:58;;;;;;;20.03;8.70;;;3.80;93.50;;;;;;5083938;28;20567;-61
2023/04/15 02:41:27;;;;;;;17.73;7.67;;;3.50;94.00;;;;;;5088617;28;20489;-61
2023/04/15 02:43:56;;;;;;;28.10;11.53;;;3.40;94.60;;;;;;5068561;28;20481;-60
2023/04/15 02:46:23;;;;;;;19.30;9.23;;;3.40;95.10;;;;;;5089551;28;20982;-60
2023/04/15 02:48:52;;;;;;;19.90;8.97;;;3.50;94.90;;;;;;5090101;28;20483;-60
2023/04/15 02:51:20;;;;;;;14.03;6.77;;;3.50;94.70;;;;;;5087957;28;20555;-60
2023/04/15 02:53:49;;;;;;;16.37;8.53;;;3.60;94.30;;;;;;5084128;28;20469;-61
2023/04/15 02:56:16;;;;;;;14.87;7.30;;;3.70;94.30;;;;;;5076218;28;20474;-60
2023/04/15 02:58:44;;;;;;;13.83;7.37;;;3.70;94.10;;;;;;5075717;28;20570;-60
2023/04/15 03:01:11;;;;;;;13.33;6.13;;;3.80;94.00;;;;;;5069703;28;20535;-61
2023/04/15 03:03:38;;;;;;;15.07;7.60;;;3.80;93.80;;;;;;5049378;28;20894;-60
2023/04/15 03:06:04;;;;;;;30.73;12.83;;;3.80;93.80;;;;;;5054434;28;20499;-61
2023/04/15 03:08:31;;;;;;;15.13;6.50;;;3.80;93.90;;;;;;5081067;28;20522;-60
2023/04/15 03:11:01;;;;;;;29.07;12.50;;;3.70;94.50;;;;;;5066705;28;20482;-61
2023/04/15 03:13:28;;;;;;;17.23;7.80;;;3.60;95.10;;;;;;5074099;28;20505;-60
2023/04/15 03:15:55;;;;;;;25.43;9.47;;;3.60;94.90;;;;;;5082426;28;20922;-61
2023/04/15 03:18:22;;;;;;;13.87;7.03;;;3.70;94.60;;;;;;5077901;28;20493;-60
2023/04/15 03:20:49;;;;;;;19.60;8.17;;;3.70;94.20;;;;;;5067597;28;20471;-60
2023/04/15 03:23:15;;;;;;;20.03;7.37;;;3.70;93.90;;;;;;5059070;28;20856;-61
2023/04/15 03:25:42;;;;;;;25.90;9.77;;;3.80;93.90;;;;;;5076449;28;20726;-60
2023/04/15 03:28:10;;;;;;;26.80;9.63;;;4.30;94.00;;;;;;5064603;28;20834;-61
2023/04/15 03:30:37;;;;;;;13.63;5.40;;;3.60;93.80;;;;;;5066453;28;20488;-60
2023/04/15 03:33:03;;;;;;;26.93;10.60;;;3.60;93.90;;;;;;5056420;28;20481;-60
2023/04/15 03:35:30;;;;;;;25.87;10.27;;;3.60;93.90;;;;;;5057606;28;20482;-61
2023/04/15 03:37:57;;;;;;;15.37;6.20;;;3.60;93.80;;;;;;5067425;28;20497;-61
2023/04/15 03:40:23;;;;;;;13.93;7.10;;;3.60;93.80;;;;;;5071530;28;20489;-60
2023/04/15 03:42:50;;;;;;;20.10;9.40;;;3.60;93.90;;;;;;5076975;28;20877;-60
2023/04/15 03:45:18;;;;;;;19.07;8.20;;;3.70;93.90;;;;;;5074628;28;20474;-60
2023/04/15 03:47:45;;;;;;;15.97;6.87;;;3.70;94.00;;;;;;5077474;28;21002;-61
2023/04/15 03:50:12;;;;;;;12.60;6.70;;;3.70;94.00;;;;;;5077944;28;20997;-60
2023/04/15 03:52:38;;;;;;;23.47;8.20;;;3.70;94.10;;;;;;5066626;28;20469;-61
2023/04/15 03:55:05;;;;;;;26.53;11.50;;;3.70;94.20;;;;;;5062584;28;20474;-60
2023/04/15 03:57:36;;;;;;;17.00;7.73;;;3.70;94.10;;;;;;5086277;28;20482;-60
2023/04/15 04:00:03;;;;;;;33.97;12.70;;;3.70;94.00;;;;;;5089937;28;20999;-61
2023/04/15 04:02:31;;;;;;;17.37;7.80;;;3.70;94.10;;;;;;5058574;28;20703;-60
2023/04/15 04:04:58;;;;;;;32.83;12.83;;;3.80;94.10;;;;;;5077991;28;20567;-60
2023/04/15 04:07:25;;;;;;;13.93;7.10;;;3.80;94.00;;;;;;5095629;28;20603;-60
2023/04/15 04:09:52;;;;;;;20.60;8.50;;;3.90;94.10;;;;;;5091308;28;20973;-60
2023/04/15 04:12:18;;;;;;;14.30;6.93;;;3.90;94.30;;;;;;5061392;28;21018;-60
2023/04/15 04:14:45;;;;;;;20.07;8.10;;;3.90;94.30;;;;;;5064031;28;20490;-60
2023/04/15 04:17:12;;;;;;;13.17;6.60;;;3.70;94.40;;;;;;5052661;28;20557;-60
2023/04/15 04:19:40;;;;;;;25.23;6.90;;;3.60;95.10;;;;;;5071620;28;20486;-61
2023/04/15 04:22:07;;;;;;;15.03;7.43;;;3.50;95.20;;;;;;5075795;28;20505;-60
2023/04/15 04:24:34;;;;;;;14.07;7.60;;;3.30;95.80;;;;;;5100063;28;20481;-60
2023/04/15 04:27:00;;;;;;;31.83;11.83;;;3.10;95.90;;;;;;5069132;28;21020;-61
2023/04/15 04:29:27;;;;;;;21.13;9.40;;;3.00;96.10;;;;;;5086220;28;21209;-61
2023/04/15 04:31:54;;;;;;;23.33;10.33;;;3.00;96.30;;;;;;5069720;28;20498;-60
2023/04/15 04:34:20;;;;;;;16.10;8.20;;;3.00;96.40;;;;;;5039792;28;20494;-60
2023/04/15 04:36:48;;;;;;;19.37;7.50;;;2.90;97.10;;;;;;5082248;28;20482;-60
2023/04/15 04:39:15;;;;;;;15.17;7.07;;;3.00;97.40;;;;;;5095384;28;20480;-60
2023/04/15 04:41:42;;;;;;;19.17;8.53;;;3.10;97.00;;;;;;5058793;28;20464;-60
2023/04/15 04:44:08;;;;;;;21.50;8.20;;;3.30;96.70;;;;;;5063830;28;20489;-61
2023/04/15 04:46:35;;;;;;;19.03;7.63;;;3.40;96.70;;;;;;5073765;28;20490;-60
2023/04/15 04:49:02;;;;;;;24.50;9.97;;;3.50;96.80;;;;;;5085037;28;20977;-60
2023/04/15 04:51:28;;;;;;;20.23;8.00;;;3.70;96.40;;;;;;5072457;28;20485;-60
2023/04/15 04:53:56;;;;;;;23.60;10.80;;;3.80;96.20;;;;;;5082796;28;20947;-61
2023/04/15 04:56:23;;;;;;;23.77;9.73;;;3.90;96.10;;;;;;5085036;28;20484;-60
2023/04/15 04:58:50;;;;;;;17.30;7.70;;;4.00;95.80;;;;;;5088989;28;20678;-61
2023/04/15 05:01:17;;;;;;;9.90;5.60;;;4.10;95.80;;;;;;5081828;28;20477;-61
2023/04/15 05:03:44;;;;;;;20.40;7.57;;;4.10;95.80;;;;;;5083956;28;20743;-60
2023/04/15 05:06:11;;;;;;;18.40;6.87;;;4.20;95.80;;;;;;5069823;28;20484;-60
2023/04/15 05:08:37;;;;;;;18.77;8.57;;;4.30;95.80;;;;;;5090846;28;21039;-60
2023/04/15 05:11:06;;;;;;;32.10;13.40;;;4.20;95.70;;;;;;5083691;28;20538;-60
2023/04/15 05:13:32;;;;;;;23.97;6.87;;;4.10;96.10;;;;;;5073421;28;20860;-61
2023/04/15 05:15:59;;;;;;;22.93;10.40;;;4.00;96.20;;;;;;5088415;28;20475;-60
2023/04/15 05:18:26;;;;;;;21.70;9.30;;;4.00;96.70;;;;;;5073628;28;21182;-61
2023/04/15 05:20:52;;;;;;;20.37;8.10;;;4.00;96.70;;;;;;5061386;28;20478;-61
2023/04/15 05:23:19;;;;;;;13.90;6.90;;;3.90;97.00;;;;;;5082852;28;20489;-61
2023/04/15 05:25:46;;;;;;;19.83;8.70;;;3.90;97.20;;;;;;5075474;28;20507;-60
2023/04/15 05:28:14;;;;;;;14.97;6.53;;;4.10;97.30;;;;;;5064044;28;20479;-60
2023/04/15 05:30:41;;;;;;;23.23;10.10;;;4.30;97.10;;;;;;5069379;28;20508;-61
2023/04/15 05:33:08;;;;;;;23.23;10.00;;;4.50;96.90;;;;;;5044219;28;20490;-60
2023/04/15 05:35:35;;;;;;;21.53;10.80;;;4.60;96.70;;;;;;5075012;28;20478;-61
2023/04/15 05:38:01;;;;;;;27.10;12.43;;;4.70;96.50;;;;;;5072640;28;20485;-60
2023/04/15 05:40:28;;;;;;;23.20;8.97;;;4.80;96.30;;;;;;5059017;28;20486;-61
2023/04/15 05:42:55;;;;;;;21.50;8.33;;;4.90;96.40;;;;;;5076614;28;21026;-61
2023/04/15 05:45:23;;;;;;;16.07;8.33;;;5.00;96.60;;;;;;5078872;28;20877;-61
2023/04/15 05:47:52;;;;;;;14.30;7.40;;;5.10;96.80;;;;;;5063658;28;20481;-61
2023/04/15 05:50:19;;;;;;;25.13;8.70;;;5.30;96.90;;;;;;5071149;28;20698;-61
2023/04/15 05:52:46;;;;;;;14.80;7.73;;;;;;;;;;5095670;28;20572;-61
2023/04/15 05:55:14;;;;;;;10.70;6.10;;;5.70;97.00;;;;;;5099852;28;20923;-61
2023/04/15 05:57:40;;;;;;;15.67;6.20;;;5.80;96.50;;;;;;5074570;28;20487;-61
2023/04/15 06:00:08;;;;;;;24.77;11.23;;;6.10;96.50;;;;;;5078488;28;20475;-61
2023/04/15 06:02:37;;;;;;;15.87;7.90;;;6.10;96.40;;;;;;5087502;28;21244;-61
2023/04/15 06:05:08;;;;;;;32.20;12.73;;;6.20;96.30;;;;;;5078435;28;20819;-61
2023/04/15 06:07:35;;;;;;;17.23;8.10;;;6.30;96.30;;;;;;5078445;28;20481;-61
2023/04/15 06:10:02;;;;;;;40.60;13.33;;;6.70;97.00;;;;;;5094549;28;20474;-61
2023/04/15 06:12:28;;;;;;;23.03;10.27;;;7.00;97.30;;;;;;5076722;28;20510;-61
2023/04/15 06:14:55;;;;;;;30.47;11.27;;;7.30;97.20;;;;;;5045784;28;20491;-61
2023/04/15 06:17:22;;;;;;;20.10;9.20;;;7.70;97.10;;;;;;5096242;28;20736;-61
2023/04/15 06:19:54;;;;;;;13.30;6.50;;;8.10;97.10;;;;;;5088701;28;20486;-61
2023/04/15 06:22:21;;;;;;;14.60;7.77;;;8.30;96.60;;;;;;5067951;28;20483;-61
2023/04/15 06:24:48;;;;;;;24.67;9.10;;;8.80;96.50;;;;;;5076188;28;20481;-61
2023/04/15 06:27:15;;;;;;;14.60;7.70;;;9.20;96.60;;;;;;5069555;28;20487;-61
2023/04/15 06:29:41;;;;;;;14.87;8.80;;;9.50;96.40;;;;;;5070513;28;20577;-62
2023/04/15 06:32:08;;;;;;;19.30;9.80;;;10.00;95.10;;;;;;5062072;28;20850;-61
2023/04/15 06:34:35;;;;;;;16.83;9.37;;;10.30;94.70;;;;;;5067159;28;20489;-61
2023/04/15 06:37:03;;;;;;;31.17;13.20;;;10.70;94.60;;;;;;5070178;28;20486;-61
2023/04/15 06:39:29;;;;;;;19.00;8.10;;;11.20;94.20;;;;;;5072574;28;20474;-60
2023/04/15 06:41:56;;;;;;;16.67;8.57;;;11.60;94.10;;;;;;5070371;28;20897;-61
2023/04/15 06:44:23;;;;;;;12.97;7.43;;;12.10;93.60;;;;;;5058090;28;20491;-62
2023/04/15 06:46:49;;;;;;;16.83;7.80;;;12.60;92.50;;;;;;5068119;28;20493;-62
2023/04/15 06:49:16;;;;;;;15.70;5.67;;;12.80;92.30;;;;;;5039807;28;20946;-61
2023/04/15 06:51:43;;;;;;;9.43;6.33;;;12.90;92.00;;;;;;5072538;28;20480;-61
2023/04/15 06:54:11;;;;;;;12.40;7.13;;;13.20;91.80;;;;;;5097019;28;21063;-62
2023/04/15 06:56:38;;;;;;;15.37;7.93;;;13.30;91.50;;;;;;5097860;28;20482;-62
2023/04/15 06:59:05;;;;;;;14.23;8.50;;;13.40;91.60;;;;;;5086096;28;20867;-62
2023/04/15 07:01:32;;;;;;;10.37;7.10;;;13.70;91.50;;;;;;5072884;28;20985;-62
2023/04/15 07:03:58;;;;;;;21.10;12.10;;;14.10;91.70;;;;;;5065715;28;20490;-62
2023/04/15 07:06:26;;;;;;;15.00;7.83;;;14.40;91.60;;;;;;5095601;28;20485;-62
2023/04/15 07:08:53;;;;;;;11.57;7.53;;;15.00;91.20;;;;;;5076396;28;20964;-62
2023/04/15 07:11:21;;;;;;;13.83;6.23;;;15.40;90.00;;;;;;5056144;28;20479;-62
2023/04/15 07:13:48;;;;;;;9.57;7.27;;;15.70;90.20;;;;;;5072892;28;21022;-63
2023/04/15 07:16:14;;;;;;;16.13;5.70;;;16.20;89.00;;;;;;5056526;28;20698;-63
2023/04/15 07:18:42;;;;;;;9.47;6.20;;;16.50;90.20;;;;;;5063950;28;20478;-62
2023/04/15 07:21:09;;;;;;;8.20;6.47;;;15.80;89.20;;;;;;5068187;28;20963;-62
2023/04/15 07:23:35;;;;;;;24.60;6.63;;;16.80;90.10;;;;;;5074580;28;20496;-63
2023/04/15 07:26:03;;;;;;;12.80;9.33;;;17.00;88.50;;;;;;5097873;28;20495;-62
2023/04/15 07:28:31;;;;;;;12.43;6.57;;;17.20;88.50;;;;;;5100278;28;20484;-63
2023/04/15 07:30:58;;;;;;;9.90;6.97;;;17.40;86.60;;;;;;5096325;28;20477;-62
2023/04/15 07:33:25;;;;;;;8.20;5.67;;;17.60;86.30;;;;;;5073441;28;20556;-63
2023/04/15 07:35:52;;;;;;;7.70;6.27;;;17.50;87.50;;;;;;5066802;28;21129;-63
2023/04/15 07:38:18;;;;;;;7.83;5.47;;;17.60;86.00;;;;;;5071589;28;20517;-63
2023/04/15 07:40:47;;;;;;;8.17;5.93;;;17.60;85.00;;;;;;5065266;28;20493;-63
2023/04/15 07:43:13;;;;;;;8.20;5.37;;;17.70;86.30;;;;;;5048101;28;21187;-63
2023/04/15 07:45:41;;;;;;;10.77;5.43;;;17.30;83.60;;;;;;5068476;28;20490;-63
2023/04/15 07:48:08;;;;;;;13.33;9.20;;;17.30;87.00;;;;;;5090015;28;20472;-63
2023/04/15 07:50:35;;;;;;;8.93;6.20;;;17.40;86.50;;;;;;5075025;28;20908;-63
2023/04/15 07:53:02;;;;;;;12.97;8.27;;;17.60;88.60;;;;;;5072062;28;20553;-63
2023/04/15 07:55:29;;;;;;;11.63;7.00;;;17.70;85.80;;;;;;5061654;28;20494;-63
2023/04/15 07:57:56;;;;;;;19.57;9.67;;;17.90;84.90;;;;;;5083928;28;20708;-63
2023/04/15 08:00:23;;;;;;;8.93;6.33;;;18.10;85.10;;;;;;5082490;28;20503;-62
2023/04/15 08:02:52;;;;;;;9.50;6.70;;;18.20;84.00;;;;;;5076090;28;20505;-63
2023/04/15 08:05:19;;;;;;;11.43;5.90;;;18.30;84.60;;;;;;5066047;28;20517;-63
2023/04/15 08:07:46;;;;;;;9.63;4.33;;;18.40;83.60;;;;;;5090219;28;20481;-62
2023/04/15 08:10:12;;;;;;;11.97;6.03;;;18.50;80.40;;;;;;5093268;28;20881;-63
2023/04/15 08:12:39;;;;;;;9.77;5.13;;;18.50;78.70;;;;;;5073094;28;20850;-63
2023/04/15 08:15:08;;;;;;;24.27;8.60;;;18.00;82.10;;;;;;5087864;28;21003;-63
2023/04/15 08:17:35;;;;;;;7.60;5.17;;;18.00;82.80;;;;;;5077469;28;20531;-63
2023/04/15 08:20:04;;;;;;;27.03;11.70;;;18.10;83.90;;;;;;5078276;28;20482;-64
2023/04/15 08:22:31;;;;;;;10.53;3.23;;;18.30;82.30;;;;;;5056110;28;20478;-63
2023/04/15 08:24:58;;;;;;;15.03;6.63;;;18.30;79.70;;;;;;5065848;28;20498;-63
2023/04/15 08:27:25;;;;;;;8.43;4.60;;;18.50;79.60;;;;;;5071506;28;20540;-63
2023/04/15 08:29:51;;;;;;;17.70;7.80;;;18.70;79.40;;;;;;5062746;28;20837;-63
2023/04/15 08:32:19;;;;;;;8.13;5.27;;;18.90;79.20;;;;;;5062385;28;20481;-63
2023/04/15 08:34:45;;;;;;;14.60;6.40;;;18.90;80.10;;;;;;5073848;28;20474;-63
2023/04/15 08:37:14;;;;;;;13.37;4.10;;;19.10;77.90;;;;;;5075685;28;20486;-64
2023/04/15 08:39:41;;;;;;;16.43;7.10;;;19.10;79.50;;;;;;5069878;28;20481;-63
2023/04/15 08:42:12;;;;;;;12.00;7.70;;;19.30;79.60;;;;;;5082730;28;20481;-63
2023/04/15 08:44:39;;;;;;;14.50;4.97;;;19.40;75.30;;;;;;5072073;28;20478;-63
2023/04/15 08:47:08;;;;;;;17.23;9.40;;;19.50;75.10;;;;;;5081234;28;20744;-64
2023/04/15 08:49:39;;;;;;;11.63;5.93;;;19.30;73.20;;;;;;5088326;28;20549;-64
2023/04/15 08:52:06;;;;;;;25.27;8.83;;;19.30;76.00;;;;;;5073779;28;20903;-63
2023/04/15 08:54:35;;;;;;;17.07;6.27;;;19.20;75.80;;;;;;5095347;28;20629;-63
2023/04/15 08:57:02;;;;;;;36.93;11.83;;;19.30;76.40;;;;;;5094442;28;20780;-63
2023/04/15 08:59:30;;;;;;;27.90;15.90;;;19.30;74.30;;;;;;5047099;28;20513;-64
2023/04/15 09:01:57;;;;;;;14.47;7.47;;;19.20;73.40;;;;;;5085785;28;20478;-64
2023/04/15 09:04:24;;;;;;;21.50;4.97;;;19.30;74.90;;;;;;5065379;28;20537;-63
2023/04/15 09:06:51;;;;;;;11.70;5.73;;;19.40;75.30;;;;;;5058419;28;21167;-62
2023/04/15 09:09:18;;;;;;;7.87;4.90;;;19.40;73.90;;;;;;5061204;28;20617;-63
2023/04/15 09:11:46;;;;;;;21.73;5.60;;;19.60;74.20;;;;;;5067115;28;20468;-63
2023/04/15 09:14:13;;;;;;;9.37;3.87;;;19.60;72.30;;;;;;5070356;28;20489;-63
2023/04/15 09:16:59;;;;;;;10.63;5.83;;;19.60;72.40;;;;;;5078440;28;20482;-63
2023/04/15 09:19:26;;;;;;;12.30;6.40;;;19.50;71.30;;;;;;5091570;28;20485;-63
2023/04/15 09:21:55;;;;;;;10.30;6.07;;;19.50;71.20;;;;;;5079973;28;20961;-63
2023/04/15 09:24:22;;;;;;;7.60;4.53;;;19.50;72.70;;;;;;5071446;28;20852;-63
2023/04/15 09:26:53;;;;;;;11.70;6.10;;;19.40;70.30;;;;;;5075212;28;20478;-63
2023/04/15 09:29:20;;;;;;;11.20;5.00;;;19.20;70.10;;;;;;5071620;28;20506;-64
2023/04/15 09:31:47;;;;;;;10.50;4.70;;;19.20;71.20;;;;;;5064014;28;20504;-63
2023/04/15 09:34:13;;;;;;;21.43;5.13;;;19.30;72.90;;;;;;5072404;28;20553;-63
2023/04/15 09:36:53;;;;;;;11.70;5.90;;;19.40;72.80;;;;;;5101959;28;20479;-64
2023/04/15 09:39:20;;;;;;;11.07;5.00;;;19.50;73.10;;;;;;5094845;28;20513;-63
2023/04/15 09:41:47;;;;;;;14.27;6.63;;;19.60;72.60;;;;;;5082379;28;20505;-63
2023/04/15 09:44:24;;;;;;;7.90;4.77;;;19.50;72.20;;;;;;5093153;28;20914;-64
2023/04/15 09:46:51;;;;;;;14.40;7.20;;;19.60;70.90;;;;;;5099415;28;20469;-63
2023/04/15 09:49:18;;;;;;;9.13;4.63;;;19.80;70.20;;;;;;5094338;28;20482;-63
2023/04/15 09:51:45;;;;;;;12.57;4.70;;;19.80;66.80;;;;;;5069976;28;20477;-63
2023/04/15 09:54:12;;;;;;;12.13;5.37;;;20.00;69.80;;;;;;5069177;28;20486;-64
2023/04/15 09:56:41;;;;;;;14.20;6.17;;;20.00;63.70;;;;;;5054844;28;20485;-63
2023/04/15 09:59:08;;;;;;;53.13;10.80;;;19.90;64.00;;;;;;5065142;28;20521;-64
2023/04/15 10:01:36;;;;;;;14.97;6.57;;;20.10;63.60;;;;;;5080071;28;20678;-64
2023/04/15 10:04:04;;;;;;;23.07;7.80;;;20.20;65.80;;;;;;5087487;28;20975;-64
2023/04/15 10:06:31;;;;;;;19.10;6.00;;;20.40;66.80;;;;;;5097265;28;20481;-63
2023/04/15 10:08:59;;;;;;;20.40;10.63;;;20.40;64.10;;;;;;5065164;28;20470;-63
2023/04/15 10:11:29;;;;;;;20.73;6.57;;;20.70;68.40;;;;;;5079006;28;20580;-63
2023/04/15 10:13:57;;;;;;;22.97;8.37;;;20.90;65.70;;;;;;5081152;28;20482;-63
2023/04/15 10:16:27;;;;;;;26.33;7.37;;;20.90;66.70;;;;;;5079149;28;20489;-62
2023/04/15 10:18:57;;;;;;;49.87;9.20;;;20.90;66.10;;;;;;5077864;28;20548;-63
2023/04/15 10:21:24;;;;;;;18.37;6.97;;;20.90;63.60;;;;;;5078121;28;20564;-63
2023/04/15 10:23:51;;;;;;;20.77;6.67;;;20.50;58.70;;;;;;5080158;28;20505;-64
2023/04/15 10:26:18;;;;;;;32.93;6.60;;;20.00;59.50;;;;;;5080600;28;20836;-63
2023/04/15 10:28:47;;;;;;;18.47;5.70;;;19.80;60.70;;;;;;5094570;28;20470;-64
2023/04/15 10:31:14;;;;;;;16.70;5.17;;;19.70;63.80;;;;;;5085091;28;20563;-63
2023/04/15 10:33:42;;;;;;;12.03;4.33;;;19.80;63.00;;;;;;5081160;28;20478;-64
2023/04/15 10:36:11;;;;;;;20.00;7.93;;;19.70;60.90;;;;;;5082419;28;20443;-64
2023/04/15 10:38:40;;;;;;;16.50;6.30;;;19.70;60.20;;;;;;5098232;28;20973;-64
2023/04/15 10:41:15;;;;;;;13.03;4.70;;;19.60;59.20;;;;;;5075773;28;20529;-64
2023/04/15 10:43:48;;;;;;;19.03;6.47;;;19.50;61.00;;;;;;5098666;28;20731;-64
2023/04/15 10:46:18;;;;;;;15.17;3.83;;;19.60;58.70;;;;;;5092745;28;20484;-64
2023/04/15 10:48:52;;;;;;;10.50;4.50;;;19.60;60.50;;;;;;5099391;28;20826;-64
2023/04/15 10:51:29;;;;;;;16.00;4.90;;;19.50;58.00;;;;;;5096237;28;20490;-64
2023/04/15 10:53:58;;;;;;;27.57;8.27;;;19.50;60.30;;;;;;5084367;28;20466;-64
2023/04/15 10:56:25;;;;;;;23.07;7.90;;;19.40;58.70;;;;;;5079554;28;20623;-64
2023/04/15 10:58:52;;;;;;;21.60;5.80;;;19.50;60.70;;;;;;5085252;28;20479;-64
2023/04/15 11:01:21;;;;;;;23.33;7.50;;;19.50;59.10;;;;;;5072337;28;20475;-64
2023/04/15 11:03:49;;;;;;;16.83;6.07;;;19.50;59.80;;;;;;5091268;28;21055;-64
2023/04/15 11:06:16;;;;;;;13.00;4.73;;;19.50;59.20;;;;;;5066383;28;20490;-64
2023/04/15 11:09:01;;;;;;;7.57;4.10;;;19.50;61.20;;;;;;5074966;28;20481;-64
2023/04/15 11:12:09;;;;;;;10.80;5.43;;;19.70;60.10;;;;;;5086840;28;20485;-64
2023/04/15 11:14:42;;;;;;;23.90;5.83;;;19.70;59.60;;;;;;5033075;28;20478;-64
2023/04/15 11:17:08;;;;;;;17.73;7.30;;;19.50;55.80;;;;;;5073823;28;20475;-64
2023/04/15 11:19:37;;;;;;;9.57;4.13;;;19.70;59.80;;;;;;5067854;28;20489;-64
2023/04/15 11:22:07;;;;;;;18.80;7.53;;;19.80;59.40;;;;;;5077830;28;20859;-64
2023/04/15 11:24:36;;;;;;;6.90;4.60;;;19.90;61.60;;;;;;5086526;28;20513;-64
2023/04/15 11:27:03;;;;;;;11.33;7.10;;;20.00;61.20;;;;;;5086227;28;20497;-64
2023/04/15 11:29:31;;;;;;;9.73;3.67;;;19.90;64.60;;;;;;5072198;28;20478;-64
2023/04/15 11:32:09;;;;;;;15.07;8.27;;;19.80;61.60;;;;;;5059335;28;21441;-64
2023/04/15 11:34:36;;;;;;;20.23;4.50;;;19.80;62.60;;;;;;5072944;28;20558;-64
2023/04/15 11:37:05;;;;;;;10.47;7.00;;;19.80;64.30;;;;;;5076653;28;20483;-64
2023/04/15 11:39:32;;;;;;;12.20;6.20;;;19.90;63.90;;;;;;5074609;28;20913;-64
2023/04/15 11:42:00;;;;;;;18.13;8.07;;;19.90;61.20;;;;;;5069099;28;20491;-63
2023/04/15 11:44:26;;;;;;;9.50;6.13;;;19.60;62.20;;;;;;5077109;28;20896;-64
2023/04/15 11:46:55;;;;;;;8.13;5.20;;;19.60;61.10;;;;;;5075105;28;20474;-64
2023/04/15 11:49:29;;;;;;;16.73;5.13;;;19.50;63.60;;;;;;5037390;28;20589;-64
2023/04/15 11:51:55;;;;;;;12.10;7.07;;;19.50;60.90;;;;;;5056201;28;20475;-63
2023/04/15 11:54:23;;;;;;;11.03;5.33;;;19.60;63.60;;;;;;5053674;28;20496;-64
2023/04/15 11:56:51;;;;;;;9.90;6.03;;;19.80;65.50;;;;;;5061619;28;20482;-64
2023/04/15 11:59:19;;;;;;;8.13;4.50;;;20.00;61.90;;;;;;5083907;28;20538;-64
2023/04/15 12:01:46;;;;;;;6.67;3.90;;;20.00;60.20;;;;;;5079712;28;20479;-64
2023/04/15 12:04:13;;;;;;;5.23;3.83;;;20.10;60.00;;;;;;5062821;28;20561;-64
2023/04/15 12:06:40;;;;;;;8.50;4.90;;;19.70;60.70;;;;;;5068869;28;20476;-64
2023/04/15 12:09:12;;;;;;;13.87;6.87;;;19.70;59.60;;;;;;5087976;28;20474;-64
2023/04/15 12:11:41;;;;;;;10.03;5.23;;;19.80;61.70;;;;;;5068097;28;20851;-64
2023/04/15 12:14:24;;;;;;;9.13;5.50;;;19.90;60.30;;;;;;5069647;28;20486;-65
2023/04/15 12:16:53;;;;;;;10.93;6.07;;;20.00;60.60;;;;;;5063964;28;20838;-63
2023/04/15 12:19:25;;;;;;;10.13;5.50;;;20.20;61.60;;;;;;5084087;28;20550;-63
2023/04/15 12:21:53;;;;;;;12.40;4.13;;;20.20;60.30;;;;;;5080814;28;20455;-64
2023/04/15 12:24:22;;;;;;;9.87;4.50;;;20.50;61.20;;;;;;5091063;28;21016;-65
2023/04/15 12:26:52;;;;;;;13.83;7.40;;;20.60;60.10;;;;;;5044908;28;20483;-63
2023/04/15 12:29:20;;;;;;;11.93;4.13;;;20.60;60.70;;;;;;5074384;28;20519;-64
2023/04/15 12:31:50;;;;;;;8.53;4.50;;;20.50;60.10;;;;;;5049342;28;20468;-63
2023/04/15 12:34:17;;;;;;;10.37;4.67;;;;;;;;;;5061705;28;20487;-64
2023/04/15 12:36:44;;;;;;;18.20;7.20;;;19.90;59.50;;;;;;5046855;28;20482;-64
2023/04/15 12:39:11;;;;;;;10.43;5.03;;;19.80;61.40;;;;;;5059433;28;20479;-64
2023/04/15 12:41:37;;;;;;;18.87;6.80;;;19.70;60.90;;;;;;5066701;28;20490;-64
2023/04/15 12:44:04;;;;;;;23.40;8.37;;;19.40;62.20;;;;;;5077265;28;20486;-64
2023/04/15 12:46:31;;;;;;;15.40;6.50;;;19.30;61.10;;;;;;5068637;28;20478;-64